Time;durP1;ratioP1;P1;durP2;ratioP2;P2;SDS_P1;SDS_P2;PMS_P1;PMS_P2;Temp;Humidity;BMP_temperature;BMP_pressure;BME280_temperature;BME280_humidity;BME280_pressure;Samples;Min_cycle;Max_cycle;Signal;HPM_P1;HPM_P2
2021/10/22 00:01:46;;;;;;;0.77;0.55;;;;;;;6.38;100.00;95785.69;5053026;28;25030;-76
2021/10/22 00:04:13;;;;;;;1.13;0.70;;;;;;;6.24;100.00;95777.78;5052823;28;24413;-77
2021/10/22 00:06:39;;;;;;;1.17;0.50;;;;;;;6.23;100.00;95776.94;5052929;28;24446;-76
2021/10/22 00:09:07;;;;;;;3.33;0.60;;;;;;;6.19;100.00;95784.84;5053088;28;24465;-77
2021/10/22 00:11:34;;;;;;;0.93;0.43;;;;;;;6.32;100.00;95788.53;5053173;28;24426;-76
2021/10/22 00:14:01;;;;;;;1.10;0.50;;;;;;;6.45;100.00;95789.66;5052780;28;24500;-77
2021/10/22 00:16:28;;;;;;;1.58;0.63;;;;;;;6.61;100.00;95796.66;5053099;28;24427;-77
2021/10/22 00:18:54;;;;;;;1.67;0.60;;;;;;;6.58;100.00;95801.94;5052684;28;24434;-76
2021/10/22 00:21:21;;;;;;;3.83;0.90;;;;;;;6.10;100.00;95808.41;5052881;28;24415;-77
2021/10/22 00:23:47;;;;;;;0.95;0.50;;;;;;;6.13;100.00;95810.84;5053067;28;24473;-76
2021/10/22 00:26:15;;;;;;;2.58;0.70;;;;;;;5.79;100.00;95810.56;5052499;28;24828;-77
2021/10/22 00:28:43;;;;;;;0.80;0.50;;;;;;;5.64;100.00;95812.97;5052420;28;24835;-77
2021/10/22 00:31:09;;;;;;;1.35;0.57;;;;;;;5.67;100.00;95807.66;5052599;28;24449;-77
2021/10/22 00:33:36;;;;;;;0.70;0.50;;;;;;;5.72;100.00;95809.16;5052435;28;24446;-77
2021/10/22 00:36:04;;;;;;;1.15;0.60;;;;;;;5.40;100.00;95805.38;5052162;28;24857;-77
2021/10/22 00:38:31;;;;;;;1.10;0.70;;;;;;;5.15;100.00;95814.97;5052476;28;24527;-77
2021/10/22 00:40:57;;;;;;;1.75;0.65;;;;;;;5.03;100.00;95813.75;5052383;28;24428;-77
2021/10/22 00:43:29;;;;;;;1.70;0.70;;;;;;;4.99;100.00;95814.78;5052502;28;24420;-76
2021/10/22 00:45:56;;;;;;;1.20;0.60;;;;;;;4.81;100.00;95811.19;5051766;28;24421;-77
2021/10/22 00:48:22;;;;;;;1.20;0.60;;;;;;;4.93;100.00;95818.44;5052734;28;24415;-77
2021/10/22 00:50:51;;;;;;;1.60;0.75;;;;;;;4.85;100.00;95821.28;5052381;28;24411;-77
2021/10/22 00:53:18;;;;;;;0.98;0.60;;;;;;;4.77;100.00;95835.31;5052161;28;24418;-77
2021/10/22 00:55:45;;;;;;;3.53;0.77;;;;;;;4.80;100.00;95830.06;5051815;28;24443;-77
2021/10/22 00:58:12;;;;;;;0.75;0.50;;;;;;;4.85;100.00;95825.56;5051966;28;24534;-77
2021/10/22 01:00:40;;;;;;;0.70;0.55;;;;;;;4.82;100.00;95833.41;5051528;28;24462;-77
2021/10/22 01:03:07;;;;;;;1.20;0.80;;;;;;;4.87;100.00;95828.94;5051926;28;24953;-77
2021/10/22 01:05:33;;;;;;;3.25;0.80;;;;;;;4.85;100.00;95838.41;5051463;28;24995;-77
2021/10/22 01:08:01;;;;;;;1.55;0.70;;;;;;;4.89;100.00;95837.41;5051825;28;24435;-77
2021/10/22 01:10:27;;;;;;;2.20;1.00;;;;;;;4.99;100.00;95831.00;5051734;28;24416;-77
2021/10/22 01:12:55;;;;;;;0.93;0.40;;;;;;;5.27;100.00;95835.03;5051721;28;24427;-76
2021/10/22 01:15:22;;;;;;;0.90;0.50;;;;;;;5.30;100.00;95833.19;5052061;28;24457;-77
2021/10/22 01:17:50;;;;;;;0.80;0.40;;;;;;;5.34;100.00;95832.16;5051683;28;24516;-77
2021/10/22 01:20:19;;;;;;;0.70;0.50;;;;;;;5.22;100.00;95831.81;5051804;28;24546;-77
2021/10/22 01:22:49;;;;;;;1.70;0.70;;;;;;;5.08;100.00;95833.22;5051659;28;24505;-77
2021/10/22 01:25:17;;;;;;;2.40;0.98;;;;;;;5.08;100.00;95820.38;5051258;28;24786;-77
2021/10/22 01:27:45;;;;;;;1.98;0.98;;;;;;;5.27;100.00;95827.34;5051201;28;24513;-77
2021/10/22 01:30:14;;;;;;;1.02;0.60;;;;;;;5.36;100.00;95824.38;5051543;28;24423;-77
2021/10/22 01:32:41;;;;;;;1.00;0.60;;;;;;;5.48;100.00;95821.28;5051591;28;24501;-77
2021/10/22 01:35:08;;;;;;;2.60;0.80;;;;;;;5.32;100.00;95820.28;5052584;28;25057;-77
2021/10/22 01:37:36;;;;;;;10.32;1.38;;;;;;;5.08;100.00;95814.44;5054387;28;24538;-77
2021/10/22 01:40:05;;;;;;;7.23;1.63;;;;;;;4.93;100.00;95815.88;5053606;28;24578;-77
2021/10/22 01:42:32;;;;;;;6.97;1.73;;;;;;;4.86;100.00;95817.00;5052812;28;24411;-77
2021/10/22 01:44:58;;;;;;;3.53;1.38;;;;;;;4.86;100.00;95817.00;5051139;28;24426;-77
2021/10/22 01:47:25;;;;;;;3.17;1.40;;;;;;;4.78;100.00;95824.16;5051267;28;24431;-77
2021/10/22 01:49:51;;;;;;;1.40;0.63;;;;;;;4.99;100.00;95819.91;5051124;28;24473;-78
2021/10/22 01:52:19;;;;;;;3.80;0.40;;;;;;;5.22;100.00;95826.69;5051032;28;24430;-77
2021/10/22 01:54:46;;;;;;;5.83;0.40;;;;;;;5.42;100.00;95836.16;5050470;28;25066;-77
2021/10/22 01:57:14;;;;;;;1.60;0.40;;;;;;;5.10;100.00;95833.97;5051177;28;24477;-77
2021/10/22 01:59:41;;;;;;;0.70;0.35;;;;;;;5.06;100.00;95841.88;5050874;28;24419;-77
2021/10/22 02:02:07;;;;;;;1.48;0.30;;;;;;;4.99;100.00;95850.72;5051013;28;24419;-77
2021/10/22 02:04:34;;;;;;;0.70;0.40;;;;;;;4.94;100.00;95843.19;5050533;28;24438;-77
2021/10/22 02:07:01;;;;;;;1.20;0.60;;;;;;;4.83;100.00;95840.22;5050641;28;24427;-76
2021/10/22 02:09:27;;;;;;;5.50;0.90;;;;;;;4.75;100.00;95852.50;5050631;28;24792;-77
2021/10/22 02:11:53;;;;;;;1.75;0.70;;;;;;;4.74;100.00;95850.81;5050495;28;24760;-77
2021/10/22 02:14:21;;;;;;;3.88;0.95;;;;;;;4.73;100.00;95862.00;5050285;28;24418;-77
2021/10/22 02:16:48;;;;;;;1.80;0.90;;;;;;;4.78;100.00;95853.25;5050309;28;24521;-77
2021/10/22 02:19:14;;;;;;;2.03;0.80;;;;;;;4.91;100.00;95853.56;5050602;28;24454;-77
2021/10/22 02:21:41;;;;;;;1.50;0.75;;;;;;;5.02;100.00;95854.00;5050422;28;24833;-77
2021/10/22 02:24:08;;;;;;;1.77;0.73;;;;;;;5.05;100.00;95853.03;5050729;28;24426;-77
2021/10/22 02:26:35;;;;;;;2.40;0.70;;;;;;;5.17;100.00;95847.41;5050359;28;24424;-77
2021/10/22 02:29:01;;;;;;;2.17;0.60;;;;;;;4.97;100.00;95849.91;5050498;28;24837;-76
2021/10/22 02:31:29;;;;;;;2.42;0.90;;;;;;;4.99;100.00;95860.97;5050517;28;24430;-77
2021/10/22 02:33:56;;;;;;;1.70;0.88;;;;;;;5.01;100.00;95857.47;5050415;28;24430;-77
2021/10/22 02:36:23;;;;;;;3.40;2.75;;;;;;;4.97;100.00;95867.88;5050071;28;24802;-77
2021/10/22 02:38:49;;;;;;;7.35;4.20;;;;;;;5.00;100.00;95868.59;5050331;28;25007;-77
2021/10/22 02:41:16;;;;;;;68.17;4.10;;;;;;;4.69;100.00;95868.13;5050402;28;24438;-77
2021/10/22 02:43:42;;;;;;;161.93;4.85;;;;;;;4.48;100.00;95878.28;5050283;28;24418;-77
2021/10/22 02:46:09;;;;;;;45.20;2.25;;;;;;;4.47;100.00;95876.63;5050014;28;24450;-77
2021/10/22 02:48:37;;;;;;;15.60;1.73;;;;;;;4.66;100.00;95879.34;5050250;28;24443;-77
2021/10/22 02:51:03;;;;;;;2.15;1.70;;;;;;;4.81;100.00;95876.19;5050147;28;24423;-77
2021/10/22 02:53:30;;;;;;;38.25;2.13;;;;;;;4.82;100.00;95885.56;5050245;28;24430;-77
2021/10/22 02:55:56;;;;;;;52.13;2.70;;;;;;;4.92;100.00;95878.34;5049997;28;24439;-76
2021/10/22 02:58:23;;;;;;;17.15;1.50;;;;;;;5.03;100.00;95878.75;5050086;28;24419;-77
2021/10/22 03:00:49;;;;;;;38.47;1.73;;;;;;;5.05;100.00;95882.13;5050190;28;24430;-77
2021/10/22 03:03:15;;;;;;;48.63;1.77;;;;;;;5.02;100.00;95876.25;5050076;28;24422;-77
2021/10/22 03:05:43;;;;;;;51.97;1.80;;;;;;;5.05;100.00;95878.72;5049751;28;24474;-77
2021/10/22 03:08:10;;;;;;;30.83;1.55;;;;;;;5.05;100.00;95874.41;5050245;28;24434;-77
2021/10/22 03:10:37;;;;;;;24.63;1.35;;;;;;;5.01;100.00;95879.72;5050174;28;24423;-77
2021/10/22 03:13:03;;;;;;;59.65;2.10;;;;;;;4.95;100.00;95869.69;5050194;28;24419;-76
2021/10/22 03:15:30;;;;;;;26.30;1.58;;;;;;;4.93;100.00;95874.03;5049658;28;24439;-77
2021/10/22 03:17:56;;;;;;;7.15;1.10;;;;;;;5.01;100.00;95879.72;5049787;28;24477;-77
2021/10/22 03:20:23;;;;;;;9.50;0.60;;;;;;;5.18;100.00;95876.47;5050264;28;24588;-77
2021/10/22 03:22:51;;;;;;;2.97;0.50;;;;;;;5.28;100.00;95880.38;5049918;28;24952;-77
2021/10/22 03:25:18;;;;;;;9.35;0.47;;;;;;;5.23;100.00;95883.13;5052918;28;24435;-77
2021/10/22 03:27:44;;;;;;;11.50;0.73;;;;;;;5.06;100.00;95896.59;5053700;28;24429;-77
2021/10/22 03:30:12;;;;;;;8.25;0.70;;;;;;;4.93;100.00;95900.56;5053685;28;24427;-77
2021/10/22 03:32:39;;;;;;;21.10;0.88;;;;;;;4.66;100.00;95897.28;5053768;28;24419;-76
2021/10/22 03:35:07;;;;;;;19.23;1.13;;;;;;;4.45;100.00;95893.81;5053408;28;24481;-76
2021/10/22 03:37:33;;;;;;;30.27;1.23;;;;;;;4.61;100.00;95896.63;5053621;28;24453;-77
2021/10/22 03:40:01;;;;;;;16.20;0.82;;;;;;;4.60;100.00;95895.81;5053634;28;24438;-77
2021/10/22 03:42:29;;;;;;;19.33;0.90;;;;;;;4.33;100.00;95886.56;5053594;28;24425;-77
2021/10/22 03:44:56;;;;;;;6.38;1.05;;;;;;;4.37;100.00;95898.38;5052996;28;24435;-77
2021/10/22 03:47:22;;;;;;;10.50;1.00;;;;;;;4.01;100.00;95896.25;5053216;28;24438;-77
2021/10/22 03:49:49;;;;;;;11.70;1.20;;;;;;;3.85;100.00;95906.16;5053604;28;24424;-77
2021/10/22 03:52:15;;;;;;;22.40;1.17;;;;;;;3.30;100.00;95904.59;5053373;28;24785;-77
2021/10/22 03:54:42;;;;;;;12.30;1.23;;;;;;;2.94;100.00;95904.03;5053096;28;24427;-77
2021/10/22 03:57:09;;;;;;;16.57;1.17;;;;;;;2.77;100.00;95912.22;5053137;28;24505;-77
2021/10/22 03:59:36;;;;;;;15.38;0.93;;;;;;;2.83;100.00;95919.72;5052981;28;24482;-76
2021/10/22 04:02:03;;;;;;;14.00;1.23;;;;;;;3.05;100.00;95918.19;5053095;28;24434;-76
2021/10/22 04:04:30;;;;;;;5.03;0.90;;;;;;;3.36;100.00;95912.91;5052885;28;24530;-76
2021/10/22 04:06:57;;;;;;;5.10;0.65;;;;;;;3.71;100.00;95908.38;5052807;28;24514;-77
2021/10/22 04:09:25;;;;;;;4.93;0.70;;;;;;;3.80;100.00;95917.47;5053149;28;24534;-77
2021/10/22 04:11:51;;;;;;;14.55;0.90;;;;;;;3.81;100.00;95919.97;5052950;28;24449;-76
2021/10/22 04:14:19;;;;;;;38.17;1.33;;;;;;;3.81;100.00;95921.69;5052695;28;24419;-76
2021/10/22 04:16:46;;;;;;;21.60;1.30;;;;;;;3.62;100.00;95921.47;5052584;28;24513;-76
2021/10/22 04:19:12;;;;;;;32.15;1.25;;;;;;;3.52;100.00;95918.41;5052961;28;24820;-77
2021/10/22 04:21:39;;;;;;;15.10;0.82;;;;;;;3.63;100.00;95925.69;5053329;28;24414;-79
2021/10/22 04:24:06;;;;;;;13.40;1.00;;;;;;;3.56;100.00;95932.78;5047565;28;24430;-80
2021/10/22 04:26:33;;;;;;;10.63;1.00;;;;;;;3.64;100.00;95925.66;5056495;28;24434;-78
2021/10/22 04:28:59;;;;;;;9.13;0.93;;;;;;;3.61;100.00;95933.44;5055264;28;24829;-79
2021/10/22 04:31:27;;;;;;;16.60;1.00;;;;;;;3.62;100.00;95934.28;5052846;28;24419;-78
2021/10/22 04:33:54;;;;;;;2.08;0.77;;;;;;;3.69;100.00;95927.25;5053318;28;24439;-77
2021/10/22 04:36:20;;;;;;;1.63;0.90;;;;;;;3.78;100.00;95925.22;5052758;28;24459;-77
2021/10/22 04:41:30;;;;;;;11.27;1.02;;;;;;;3.51;100.00;95924.38;5055388;28;24430;-77
2021/10/22 04:43:57;;;;;;;7.35;0.90;;;;;;;3.20;100.00;95931.38;5052447;28;24795;-77
2021/10/22 04:46:24;;;;;;;13.13;0.90;;;;;;;3.21;100.00;95925.38;5049184;28;24435;-77
2021/10/22 04:48:52;;;;;;;18.20;1.27;;;;;;;3.01;100.00;95929.41;5053633;28;24496;-77
2021/10/22 04:51:18;;;;;;;6.25;0.88;;;;;;;2.98;100.00;95915.84;5052159;28;24438;-77
2021/10/22 04:53:44;;;;;;;13.10;1.60;;;;;;;3.06;100.00;95927.53;5051567;28;24432;-77
2021/10/22 04:56:11;;;;;;;9.30;1.42;;;;;;;3.13;100.00;95923.88;5051839;28;24521;-77
2021/10/22 04:58:38;;;;;;;18.30;1.30;;;;;;;3.06;100.00;95924.13;5051976;28;24508;-78
2021/10/22 05:01:05;;;;;;;7.97;0.90;;;;;;;3.07;100.00;95934.31;5051467;28;24879;-77
2021/10/22 05:03:33;;;;;;;10.95;1.33;;;;;;;2.91;100.00;95933.94;5051607;28;24424;-77
2021/10/22 05:06:01;;;;;;;18.77;1.63;;;;;;;2.88;100.00;95933.19;5051524;28;24957;-77
2021/10/22 05:08:27;;;;;;;17.10;1.60;;;;;;;2.93;100.00;95936.47;5051429;28;24473;-77
2021/10/22 05:10:53;;;;;;;21.60;1.30;;;;;;;3.07;100.00;95933.47;5052256;28;24481;-77
2021/10/22 05:13:20;;;;;;;6.30;0.95;;;;;;;3.23;100.00;95939.81;5052052;28;24789;-77
2021/10/22 05:15:47;;;;;;;13.77;1.02;;;;;;;3.25;100.00;95929.50;5051324;28;24514;-77
2021/10/22 05:18:13;;;;;;;9.33;1.13;;;;;;;3.20;100.00;95933.94;5051327;28;24431;-77
2021/10/22 05:20:40;;;;;;;6.67;0.80;;;;;;;3.37;100.00;95934.22;5051652;28;24427;-77
2021/10/22 05:23:08;;;;;;;10.73;1.20;;;;;;;3.07;100.00;95941.16;5043417;28;24431;-77
2021/10/22 05:25:34;;;;;;;3.30;1.13;;;;;;;3.08;100.00;95933.44;5047330;28;24820;-77
2021/10/22 05:28:01;;;;;;;0.88;0.70;;;;;;;3.08;100.00;95936.00;5051456;28;24470;-77
2021/10/22 05:30:27;;;;;;;5.80;1.00;;;;;;;3.05;100.00;95938.66;5051691;28;24419;-77
2021/10/22 05:32:54;;;;;;;4.78;1.10;;;;;;;3.01;100.00;95943.91;5051350;28;24431;-77
2021/10/22 05:35:20;;;;;;;2.95;1.10;;;;;;;3.05;100.00;95936.09;5045150;28;24439;-77
2021/10/22 05:37:47;;;;;;;3.20;1.40;;;;;;;3.00;100.00;95950.72;5051397;28;24521;-77
2021/10/22 05:40:15;;;;;;;7.72;1.48;;;;;;;3.00;100.00;95942.22;5043785;28;24808;-80
2021/10/22 05:42:41;;;;;;;7.15;1.55;;;;;;;3.20;100.00;95945.03;5048637;28;24985;-77
2021/10/22 05:45:08;;;;;;;13.13;1.52;;;;;;;3.02;100.00;95946.41;5050461;28;24442;-77
2021/10/22 05:47:36;;;;;;;3.30;1.60;;;;;;;3.11;100.00;95946.13;5053999;28;24438;-77
2021/10/22 05:50:04;;;;;;;2.40;1.45;;;;;;;3.04;100.00;95948.91;5047552;28;24501;-77
2021/10/22 05:52:30;;;;;;;2.30;1.40;;;;;;;3.05;100.00;95954.00;5049447;28;24450;-77
2021/10/22 05:54:57;;;;;;;5.65;1.38;;;;;;;3.07;100.00;95952.22;5045405;28;24829;-77
2021/10/22 05:57:24;;;;;;;3.47;1.40;;;;;;;3.07;100.00;95961.63;5051042;28;24921;-77
2021/10/22 05:59:51;;;;;;;3.20;1.20;;;;;;;3.07;100.00;95965.00;5045888;28;25008;-77
2021/10/22 06:02:17;;;;;;;7.78;1.60;;;;;;;2.99;100.00;95963.56;5052185;28;24416;-77
2021/10/22 06:04:45;;;;;;;6.63;1.48;;;;;;;3.03;100.00;95957.47;5053356;28;24977;-77
2021/10/22 06:07:11;;;;;;;5.97;1.50;;;;;;;2.97;100.00;95963.63;5059132;28;24451;-77
2021/10/22 06:09:38;;;;;;;9.20;1.70;;;;;;;2.94;100.00;95968.84;5057681;28;24805;-75
2021/10/22 06:12:05;;;;;;;11.35;1.85;;;;;;;2.98;100.00;95969.59;5051358;28;24981;-78
2021/10/22 06:14:33;;;;;;;14.60;2.30;;;;;;;3.02;100.00;95964.31;5052073;28;24469;-77
2021/10/22 06:17:01;;;;;;;22.60;2.17;;;;;;;3.20;100.00;95972.34;5050167;28;24977;-76
2021/10/22 06:19:31;;;;;;;15.80;1.80;;;;;;;3.21;100.00;95968.88;5050394;28;24929;-77
2021/10/22 06:22:11;;;;;;;21.38;2.55;;;;;;;3.15;100.00;95975.88;5050440;28;24438;-76
2021/10/22 06:24:38;;;;;;;7.40;2.70;;;;;;;3.18;100.00;95981.78;5038239;28;24525;-77
2021/10/22 06:27:05;;;;;;;10.90;2.50;;;;;;;3.26;100.00;95982.38;5050295;28;25113;-77
2021/10/22 06:29:33;;;;;;;45.78;2.38;;;;;;;3.14;100.00;95979.31;5050801;28;24446;-77
2021/10/22 06:32:00;;;;;;;25.65;2.15;;;;;;;3.31;100.00;95983.91;5050527;28;24435;-77
2021/10/22 06:34:27;;;;;;;41.55;2.33;;;;;;;3.27;100.00;95978.94;5050434;28;24426;-77
2021/10/22 06:36:54;;;;;;;32.35;2.65;;;;;;;3.20;100.00;95987.69;5050396;28;24487;-77
2021/10/22 06:39:20;;;;;;;7.93;2.13;;;;;;;3.35;100.00;95989.78;5050615;28;24484;-77
2021/10/22 06:41:47;;;;;;;19.15;2.40;;;;;;;3.49;100.00;95991.91;5050213;28;24426;-77
2021/10/22 06:44:13;;;;;;;38.90;3.05;;;;;;;3.27;100.00;95994.31;5050003;28;24965;-77
2021/10/22 06:46:41;;;;;;;40.83;2.67;;;;;;;3.26;100.00;95997.72;5049955;28;24439;-77
2021/10/22 06:49:08;;;;;;;57.92;2.97;;;;;;;3.18;100.00;96000.53;5050229;28;24431;-76
2021/10/22 06:51:34;;;;;;;27.30;2.75;;;;;;;3.22;100.00;96007.22;5050247;28;24465;-76
2021/10/22 06:54:00;;;;;;;34.15;2.80;;;;;;;3.29;100.00;96013.84;5050109;28;24439;-76
2021/10/22 06:56:27;;;;;;;16.63;3.08;;;;;;;3.40;100.00;96021.19;5050163;28;26403;-76
2021/10/22 06:58:53;;;;;;;6.03;2.17;;;;;;;3.56;100.00;96017.28;5050973;28;24427;-76
2021/10/22 07:01:20;;;;;;;23.45;2.63;;;;;;;3.39;100.00;96020.34;5054201;28;24426;-75
2021/10/22 07:03:47;;;;;;;8.77;2.38;;;;;;;3.55;100.00;96020.72;5054262;28;24426;-75
2021/10/22 07:08:58;;;;;;;13.00;3.70;;;;;;;3.80;100.00;96025.06;5053535;28;24407;-75
2021/10/22 07:11:25;;;;;;;17.42;3.58;;;;;;;3.83;100.00;96032.66;5053787;28;24477;-75
2021/10/22 07:13:54;;;;;;;12.65;3.58;;;;;;;3.79;100.00;96041.34;5054466;28;24957;-75
2021/10/22 07:16:22;;;;;;;10.75;3.65;;;;;;;4.02;100.00;96046.53;5053541;28;24431;-75
2021/10/22 07:18:50;;;;;;;7.22;3.67;;;;;;;4.26;100.00;96052.56;5053557;28;24474;-75
2021/10/22 07:21:18;;;;;;;10.60;4.05;;;;;;;4.43;100.00;96059.72;5053835;28;24500;-75
2021/10/22 07:23:47;;;;;;;7.13;3.92;;;;;;;4.66;100.00;96063.22;5053697;28;24530;-75
2021/10/22 07:26:14;;;;;;;9.93;4.00;;;;;;;5.07;100.00;96067.72;5053687;28;24454;-75
2021/10/22 07:28:41;;;;;;;6.68;3.25;;;;;;;5.43;100.00;96081.81;5053534;28;24520;-75
2021/10/22 07:31:10;;;;;;;8.80;3.50;;;;;;;5.77;100.00;96081.38;5053693;28;24508;-75
2021/10/22 07:33:37;;;;;;;9.48;3.40;;;;;;;5.94;100.00;96080.75;5053419;28;24779;-76
2021/10/22 07:36:06;;;;;;;7.80;3.45;;;;;;;6.31;100.00;96085.25;5053220;28;25006;-75
2021/10/22 07:38:33;;;;;;;8.23;3.88;;;;;;;6.12;100.00;96087.75;5053164;28;24552;-76
2021/10/22 07:40:59;;;;;;;9.65;4.10;;;;;;;6.18;100.00;96091.78;5053859;28;24516;-76
2021/10/22 07:43:26;;;;;;;7.05;4.22;;;;;;;6.24;100.00;96091.53;5054877;28;24836;-75
2021/10/22 07:45:52;;;;;;;12.13;4.68;;;;;;;6.39;100.00;96106.34;5053940;28;24430;-76
2021/10/22 07:48:19;;;;;;;12.02;3.88;;;;;;;6.66;100.00;96112.09;5053427;28;24422;-75
2021/10/22 07:50:45;;;;;;;13.77;3.10;;;;;;;6.41;100.00;96109.69;5053768;28;24426;-78
2021/10/22 07:53:13;;;;;;;7.22;2.67;;;;;;;6.20;100.00;96118.28;5044792;28;24439;-76
2021/10/22 07:55:40;;;;;;;6.85;2.78;;;;;;;6.64;100.00;96115.66;5033900;28;24411;-76
2021/10/22 07:58:06;;;;;;;4.75;2.50;;;;;;;6.75;98.70;96121.19;5033144;28;24510;-77
2021/10/22 08:00:33;;;;;;;5.00;2.35;;;;;;;6.90;100.00;96122.28;5033450;28;24490;-76
2021/10/22 08:02:59;;;;;;;7.85;2.60;;;;;;;7.22;100.00;96119.13;5033838;28;24420;-76
2021/10/22 08:05:26;;;;;;;7.28;2.92;;;;;;;7.56;98.57;96122.75;5033278;28;24424;-76
2021/10/22 08:07:52;;;;;;;8.20;2.30;;;;;;;7.12;95.60;96137.59;5033793;28;24423;-76
2021/10/22 08:10:21;;;;;;;6.82;2.38;;;;;;;7.34;99.04;96128.06;5032554;28;24482;-76
2021/10/22 08:12:48;;;;;;;6.18;2.75;;;;;;;7.65;97.91;96124.09;5043398;28;24435;-76
2021/10/22 08:15:14;;;;;;;4.68;1.95;;;;;;;7.62;94.34;96131.97;5053266;28;24976;-79
2021/10/22 08:17:41;;;;;;;6.85;2.38;;;;;;;7.76;94.98;96140.75;5049664;28;24478;-76
2021/10/22 08:20:10;;;;;;;6.47;2.50;;;;;;;8.02;94.78;96136.13;5052652;28;24438;-77
2021/10/22 08:22:37;;;;;;;7.05;2.40;;;;;;;8.30;92.49;96139.97;5053387;28;25000;-77
2021/10/22 08:25:06;;;;;;;8.65;2.40;;;;;;;8.55;92.33;96139.66;5055072;28;24411;-78
2021/10/22 08:27:36;;;;;;;9.15;2.92;;;;;;;8.85;92.23;96140.72;5053389;28;24423;-77
2021/10/22 08:30:04;;;;;;;8.30;2.92;;;;;;;9.09;89.53;96143.00;5053427;28;24438;-78
2021/10/22 08:32:32;;;;;;;9.02;2.63;;;;;;;9.05;90.42;96142.31;5053710;28;20788;-78
2021/10/22 08:34:58;;;;;;;11.40;2.90;;;;;;;8.60;94.37;96143.72;5053341;28;24419;-78
2021/10/22 08:37:25;;;;;;;9.35;3.05;;;;;;;7.88;93.94;96149.66;5053840;28;24474;-77
2021/10/22 08:39:52;;;;;;;11.05;2.78;;;;;;;8.50;94.95;96145.06;5054198;28;24422;-77
2021/10/22 08:42:22;;;;;;;11.40;3.42;;;;;;;9.10;91.20;96153.25;5055024;28;20877;-77
2021/10/22 08:44:52;;;;;;;9.85;3.00;;;;;;;9.43;90.83;96149.84;5054789;28;20743;-77
2021/10/22 08:47:21;;;;;;;7.78;2.55;;;;;;;8.87;83.90;96151.84;5054911;28;20856;-77
2021/10/22 08:49:47;;;;;;;13.38;3.28;;;;;;;8.28;80.95;96154.72;5053383;28;24465;-76
2021/10/22 08:52:14;;;;;;;9.77;3.47;;;;;;;7.51;90.21;96151.31;5052020;28;24411;-77
2021/10/22 08:54:41;;;;;;;10.93;2.90;;;;;;;8.28;86.43;96152.97;5051945;28;24432;-77
2021/10/22 08:57:09;;;;;;;20.83;3.27;;;;;;;8.05;90.49;96150.66;5052730;28;20783;-76
2021/10/22 08:59:35;;;;;;;10.97;3.33;;;;;;;7.85;86.40;96154.97;5052475;28;20896;-76
2021/10/22 09:02:21;;;;;;;11.95;3.28;;;;;;;8.20;85.32;96158.50;5052547;28;20766;-76
2021/10/22 09:04:50;;;;;;;10.52;3.38;;;;;;;8.76;88.40;96150.69;5051857;28;20717;-76
2021/10/22 09:07:18;;;;;;;10.07;3.13;;;;;;;8.79;81.69;96155.69;5052764;28;21143;-76
2021/10/22 09:09:47;;;;;;;8.15;2.60;;;;;;;7.98;83.18;96158.66;5052173;28;21151;-77
2021/10/22 09:12:14;;;;;;;10.30;3.08;;;;;;;7.42;79.87;96153.50;5051678;28;20751;-76
2021/10/22 09:14:58;;;;;;;8.15;2.72;;;;;;;7.56;81.06;96158.00;5051802;28;20770;-76
2021/10/22 09:17:35;;;;;;;9.38;2.97;;;;;;;7.15;84.87;96158.91;5051875;28;21035;-76
2021/10/22 09:20:02;;;;;;;8.70;2.38;;;;;;;7.37;81.18;96151.09;5051336;28;24411;-76
2021/10/22 09:22:33;;;;;;;10.43;3.00;;;;;;;8.10;80.08;96159.81;5048630;28;24512;-76
2021/10/22 09:25:01;;;;;;;9.93;2.83;;;;;;;8.50;79.09;96163.13;5031688;28;20818;-76
2021/10/22 09:27:41;;;;;;;14.38;3.05;;;;;;;8.71;79.34;96161.22;5030808;28;24426;-76
2021/10/22 09:30:12;;;;;;;8.80;2.45;;;;;;;8.68;76.83;96157.06;5051039;28;20657;-76
2021/10/22 09:32:50;;;;;;;11.52;2.45;;;;;;;8.81;72.99;96161.63;5051469;28;24427;-76
2021/10/22 09:35:32;;;;;;;10.40;2.45;;;;;;;8.58;71.19;96162.75;5051173;28;20755;-76
2021/10/22 09:38:13;;;;;;;7.70;2.50;;;;;;;8.74;75.40;96168.84;5051391;28;20786;-76
2021/10/22 09:40:40;;;;;;;15.27;2.55;;;;;;;8.51;72.20;96166.53;5051288;28;20759;-76
2021/10/22 09:43:22;;;;;;;11.32;2.58;;;;;;;8.45;71.92;96163.38;5051150;28;20791;-76
2021/10/22 09:45:50;;;;;;;13.20;2.50;;;;;;;8.30;70.19;96170.94;5050819;28;20736;-76
2021/10/22 09:48:29;;;;;;;7.20;2.35;;;;;;;7.90;71.51;96165.09;5051000;28;24422;-76
2021/10/22 09:50:58;;;;;;;5.50;2.28;;;;;;;8.01;71.38;96162.84;5051183;28;21105;-76
2021/10/22 09:53:29;;;;;;;6.32;2.25;;;;;;;7.98;70.06;96166.41;5050726;28;21210;-76
2021/10/22 09:56:04;;;;;;;9.27;2.30;;;;;;;7.66;70.78;96161.88;5050752;28;21162;-76
2021/10/22 09:58:30;;;;;;;6.68;2.20;;;;;;;8.03;71.52;96162.75;5050878;28;20677;-76
2021/10/22 10:01:21;;;;;;;7.22;2.28;;;;;;;7.86;70.32;96163.53;5051023;28;20855;-76
2021/10/22 10:03:49;;;;;;;7.40;2.20;;;;;;;7.88;70.42;96159.16;5044976;28;24439;-76
2021/10/22 10:06:16;;;;;;;8.98;2.60;;;;;;;8.25;71.67;96161.69;5050465;28;24956;-76
2021/10/22 10:08:42;;;;;;;9.73;2.33;;;;;;;8.51;70.16;96154.47;5051043;28;24505;-77
2021/10/22 10:11:09;;;;;;;9.82;2.78;;;;;;;8.02;68.64;96161.09;5051105;28;24822;-76
2021/10/22 10:13:36;;;;;;;7.68;3.03;;;;;;;8.13;68.43;96156.28;5050657;28;24522;-76
2021/10/22 10:16:04;;;;;;;10.82;2.60;;;;;;;8.42;69.97;96171.25;5050248;28;24961;-76
2021/10/22 10:18:37;;;;;;;10.85;2.40;;;;;;;8.34;70.63;96169.88;5050323;28;24451;-76
2021/10/22 10:21:08;;;;;;;7.63;2.67;;;;;;;8.44;67.57;96163.41;5050420;28;20640;-76
2021/10/22 10:23:36;;;;;;;9.20;2.60;;;;;;;8.36;66.85;96162.91;5039533;28;20715;-76
2021/10/22 10:26:18;;;;;;;9.13;2.27;;;;;;;8.06;65.94;96154.88;5030610;28;20798;-76
2021/10/22 10:28:45;;;;;;;4.53;1.90;;;;;;;8.11;65.47;96165.81;5030502;28;20724;-76
2021/10/22 10:31:28;;;;;;;7.30;2.30;;;;;;;8.14;63.32;96155.34;5030490;28;24420;-76
2021/10/22 10:33:55;;;;;;;7.40;2.30;;;;;;;8.20;67.35;96161.06;5030258;28;20665;-76
2021/10/22 10:36:47;;;;;;;6.63;2.50;;;;;;;8.37;63.92;96162.88;5030232;28;24416;-76
2021/10/22 10:39:15;;;;;;;7.27;2.13;;;;;;;8.15;67.96;96163.00;5030360;28;21289;-76
2021/10/22 10:41:41;;;;;;;9.53;2.17;;;;;;;8.07;65.83;96162.53;5030144;28;20893;-76
2021/10/22 10:44:32;;;;;;;5.37;1.80;;;;;;;8.05;65.43;96166.94;5030334;28;21213;-76
2021/10/22 10:46:58;;;;;;;11.80;2.40;;;;;;;8.11;65.82;96168.41;5030620;28;20723;-76
2021/10/22 10:49:58;;;;;;;5.97;1.98;;;;;;;7.90;64.67;96173.66;5031931;28;24419;-76
2021/10/22 10:52:55;;;;;;;7.35;2.40;;;;;;;7.86;63.09;96169.53;5032295;28;21186;-76
2021/10/22 10:55:27;;;;;;;6.78;2.25;;;;;;;7.93;63.29;96172.66;5031267;28;20756;-76
2021/10/22 10:57:55;;;;;;;5.40;1.85;;;;;;;8.07;60.96;96174.59;5031488;28;21345;-76
2021/10/22 11:00:24;;;;;;;4.73;1.90;;;;;;;7.78;62.00;96174.19;5031164;28;20809;-76
2021/10/22 11:03:24;;;;;;;4.27;1.90;;;;;;;7.95;65.08;96179.44;5030631;28;24443;-76
2021/10/22 11:06:16;;;;;;;7.10;2.15;;;;;;;7.94;65.35;96179.50;5030413;28;21039;-76
2021/10/22 11:08:51;;;;;;;7.03;2.08;;;;;;;7.90;60.37;96177.97;5030306;28;20762;-75
2021/10/22 11:11:34;;;;;;;5.82;2.40;;;;;;;8.24;61.82;96187.56;5030591;28;20809;-76
2021/10/22 11:14:17;;;;;;;6.23;1.77;;;;;;;7.82;60.41;96175.72;5030763;28;21144;-76
2021/10/22 11:16:50;;;;;;;4.45;1.83;;;;;;;8.12;60.90;96193.28;5029487;28;24984;-76
2021/10/22 11:19:19;;;;;;;8.52;2.25;;;;;;;8.05;58.67;96191.91;5030539;28;20757;-76
2021/10/22 11:21:48;;;;;;;5.40;2.10;;;;;;;7.91;60.71;96188.22;5030671;28;20756;-77
2021/10/22 11:24:18;;;;;;;6.05;1.88;;;;;;;7.89;59.96;96187.44;5030196;28;20790;-76
2021/10/22 11:26:45;;;;;;;7.80;1.98;;;;;;;8.05;60.22;96190.16;5029788;28;20783;-76
2021/10/22 11:29:17;;;;;;;5.80;2.00;;;;;;;8.21;58.52;96191.13;5030101;28;20757;-76
2021/10/22 11:31:46;;;;;;;6.10;2.35;;;;;;;8.25;57.03;96190.06;5029870;28;20760;-76
2021/10/22 11:34:18;;;;;;;7.43;2.37;;;;;;;8.15;58.12;96193.97;5030176;28;24422;-76
2021/10/22 11:36:56;;;;;;;11.90;2.57;;;;;;;8.21;59.28;96188.53;5029944;28;24424;-76
2021/10/22 11:39:27;;;;;;;11.60;2.58;;;;;;;8.06;59.30;96189.25;5030449;28;25032;-76
2021/10/22 11:42:18;;;;;;;4.90;1.90;;;;;;;8.21;59.80;96200.59;5030660;28;20780;-76
2021/10/22 11:44:47;;;;;;;5.85;1.80;;;;;;;7.99;57.98;96199.00;5031104;28;20711;-76
2021/10/22 11:47:14;;;;;;;5.97;2.28;;;;;;;8.15;58.28;96199.13;5033732;28;24419;-76